Time;durP1;ratioP1;P1;durP2;ratioP2;P2;SDS_P1;SDS_P2;PMS_P1;PMS_P2;Temp;Humidity;BMP_temperature;BMP_pressure;BME280_temperature;BME280_humidity;BME280_pressure;Samples;Min_cycle;Max_cycle;Signal;HPM_P1;HPM_P2
2022/07/21 00:00:57;;;;;;;2.80;2.60;;;28.50;22.80;;;;;;10412108;28;20248;-73
2022/07/21 00:06:00;;;;;;;3.57;3.27;;;28.40;22.30;;;;;;10409527;28;20224;-73
2022/07/21 00:11:05;;;;;;;3.57;3.00;;;28.20;23.60;;;;;;10413261;28;20231;-73
2022/07/21 00:16:09;;;;;;;2.93;2.70;;;28.00;23.80;;;;;;10417596;28;20234;-73
2022/07/21 00:21:12;;;;;;;3.40;3.10;;;27.80;23.80;;;;;;10414062;28;20221;-73
2022/07/21 00:26:17;;;;;;;3.53;3.23;;;27.60;24.20;;;;;;10424660;28;20866;-74
2022/07/21 00:31:20;;;;;;;3.30;3.03;;;27.50;25.00;;;;;;10428682;28;20277;-73
2022/07/21 00:36:23;;;;;;;2.97;2.77;;;27.40;24.80;;;;;;10420969;28;20229;-73
2022/07/21 00:41:28;;;;;;;3.13;2.87;;;27.40;25.00;;;;;;10429483;28;20233;-73
2022/07/21 00:46:31;;;;;;;2.90;2.70;;;27.30;25.90;;;;;;10412518;28;20764;-73
2022/07/21 00:51:34;;;;;;;3.40;3.10;;;27.20;25.50;;;;;;10425205;28;20235;-73
2022/07/21 00:56:40;;;;;;;3.17;2.97;;;27.10;26.00;;;;;;10423595;28;20240;-73
2022/07/21 01:01:43;;;;;;;3.00;2.80;;;27.00;26.80;;;;;;10418197;28;20235;-73
2022/07/21 01:06:46;;;;;;;3.67;3.17;;;27.00;26.40;;;;;;10418654;28;20290;-73
2022/07/21 01:11:51;;;;;;;5.43;3.23;;;26.80;26.30;;;;;;10416229;28;20236;-73
2022/07/21 01:16:55;;;;;;;3.87;3.00;;;26.60;27.30;;;;;;10417082;28;20228;-73
2022/07/21 01:21:59;;;;;;;3.67;3.37;;;26.20;27.20;;;;;;10410027;28;20234;-73
2022/07/21 01:27:03;;;;;;;3.43;3.23;;;25.90;28.30;;;;;;10415600;28;20221;-72
2022/07/21 01:32:07;;;;;;;4.20;3.57;;;25.60;27.90;;;;;;10426552;28;20230;-73
2022/07/21 01:37:11;;;;;;;3.70;3.40;;;25.40;28.50;;;;;;10418105;28;20225;-73
2022/07/21 01:42:14;;;;;;;4.03;3.47;;;25.30;28.90;;;;;;10417750;28;20229;-73
2022/07/21 01:47:20;;;;;;;3.87;3.57;;;25.20;28.80;;;;;;10413194;28;20233;-73
2022/07/21 01:52:24;;;;;;;3.83;3.53;;;25.10;29.20;;;;;;10421837;28;20724;-73
2022/07/21 01:57:27;;;;;;;3.83;3.53;;;24.90;30.60;;;;;;10423707;28;20225;-73
2022/07/21 02:02:31;;;;;;;4.07;3.77;;;24.80;29.90;;;;;;10417646;28;20807;-73
2022/07/21 02:07:35;;;;;;;4.20;3.90;;;24.70;30.20;;;;;;10419100;28;20225;-73
2022/07/21 02:12:38;;;;;;;4.67;3.60;;;24.70;31.60;;;;;;10416735;28;20233;-73
2022/07/21 02:17:42;;;;;;;4.30;3.90;;;24.60;30.60;;;;;;10421819;28;20244;-73
2022/07/21 02:22:47;;;;;;;4.43;4.03;;;24.50;30.90;;;;;;10416686;28;20232;-73
2022/07/21 02:27:50;;;;;;;3.80;3.50;;;24.50;32.10;;;;;;10413691;28;20320;-73
2022/07/21 02:32:53;;;;;;;4.30;4.00;;;24.60;31.00;;;;;;10420584;28;20225;-73
2022/07/21 02:37:58;;;;;;;4.27;3.97;;;24.70;31.80;;;;;;10411760;28;20235;-73
2022/07/21 02:43:01;;;;;;;4.80;4.40;;;24.70;32.30;;;;;;10421278;28;20233;-73
2022/07/21 02:48:06;;;;;;;5.27;4.07;;;24.80;31.70;;;;;;10414327;28;20681;-73
2022/07/21 02:53:15;;;;;;;5.00;4.50;;;24.70;32.50;;;;;;10410644;28;20232;-73
2022/07/21 02:58:23;;;;;;;4.90;4.50;;;24.70;33.60;;;;;;10417931;28;20232;-73
2022/07/21 03:03:29;;;;;;;4.80;4.30;;;24.70;33.70;;;;;;10415571;28;20221;-73
2022/07/21 03:08:34;;;;;;;4.90;4.50;;;24.60;33.20;;;;;;10416429;28;20256;-73
2022/07/21 03:13:38;;;;;;;5.47;4.67;;;24.50;34.00;;;;;;10413514;28;20248;-73
2022/07/21 03:18:41;;;;;;;4.70;4.40;;;24.50;32.70;;;;;;10416623;28;20325;-73
2022/07/21 03:23:46;;;;;;;5.30;4.90;;;24.40;33.00;;;;;;10426714;28;20760;-73
2022/07/21 03:28:49;;;;;;;4.60;4.30;;;24.40;34.20;;;;;;10425408;28;20570;-73
2022/07/21 03:33:53;;;;;;;4.63;4.23;;;24.30;33.30;;;;;;10414107;28;20229;-73
2022/07/21 03:38:58;;;;;;;4.50;4.10;;;24.30;33.60;;;;;;10411960;28;20226;-73
2022/07/21 03:44:01;;;;;;;4.97;4.67;;;24.30;34.50;;;;;;10415738;28;20706;-73
2022/07/21 03:49:04;;;;;;;6.60;5.27;;;24.30;34.10;;;;;;10405749;28;20230;-74
2022/07/21 03:54:09;;;;;;;4.97;4.57;;;24.40;34.10;;;;;;10420046;28;20716;-73
2022/07/21 03:59:12;;;;;;;5.20;4.70;;;24.50;35.60;;;;;;10410802;28;20228;-73
2022/07/21 04:04:15;;;;;;;4.40;4.10;;;24.50;34.30;;;;;;10425170;28;20897;-73
2022/07/21 04:09:20;;;;;;;4.73;4.33;;;24.50;34.30;;;;;;10418712;28;20225;-73
2022/07/21 04:14:23;;;;;;;4.77;4.37;;;24.60;35.10;;;;;;10419248;28;20232;-73
2022/07/21 04:19:26;;;;;;;5.20;4.80;;;24.60;34.20;;;;;;10420101;28;20236;-73
2022/07/21 04:24:31;;;;;;;6.23;5.67;;;24.70;34.50;;;;;;10418157;28;20233;-74
2022/07/21 04:29:34;;;;;;;6.90;6.40;;;24.60;35.40;;;;;;10419495;28;20255;-75
2022/07/21 04:34:37;;;;;;;6.93;6.13;;;24.50;34.90;;;;;;10408025;28;20229;-73
2022/07/21 04:39:42;;;;;;;7.97;7.27;;;24.30;34.90;;;;;;10415126;28;20708;-74
2022/07/21 04:44:47;;;;;;;7.10;6.50;;;24.30;36.40;;;;;;10407682;28;20251;-73
2022/07/21 04:49:50;;;;;;;8.43;7.77;;;24.30;35.60;;;;;;10406061;28;20229;-73
2022/07/21 04:54:55;;;;;;;8.50;7.80;;;24.30;36.20;;;;;;10409911;28;20224;-73
2022/07/21 04:59:58;;;;;;;9.17;8.03;;;24.10;37.40;;;;;;10414733;28;20233;-73
2022/07/21 05:05:01;;;;;;;10.07;7.37;;;24.00;36.50;;;;;;10425331;28;20760;-71
2022/07/21 05:10:08;;;;;;;7.93;7.23;;;23.90;37.00;;;;;;10422522;28;20229;-71
2022/07/21 05:15:12;;;;;;;8.53;7.70;;;23.90;39.00;;;;;;10421801;28;20612;-73
2022/07/21 05:20:15;;;;;;;8.80;8.00;;;24.00;38.00;;;;;;10430479;28;20233;-73
2022/07/21 05:25:20;;;;;;;8.40;7.60;;;24.00;37.50;;;;;;10430770;28;20693;-73
2022/07/21 05:30:23;;;;;;;8.30;7.60;;;24.00;38.60;;;;;;10423216;28;20229;-74
2022/07/21 05:35:26;;;;;;;8.13;7.43;;;24.00;37.70;;;;;;10417616;28;20719;-73
2022/07/21 05:40:31;;;;;;;8.73;7.90;;;24.00;37.90;;;;;;10428595;28;20229;-73
2022/07/21 05:45:34;;;;;;;8.50;7.73;;;24.00;39.10;;;;;;10423674;28;20871;-73
2022/07/21 05:50:37;;;;;;;9.10;8.17;;;24.00;38.70;;;;;;10427359;28;20233;-72
2022/07/21 05:55:42;;;;;;;8.30;7.57;;;24.00;38.30;;;;;;10427303;28;20229;-73
2022/07/21 06:01:07;;;;;;;8.83;8.13;;;24.00;39.30;;;;;;10428641;28;20233;-72
2022/07/21 06:06:10;;;;;;;9.23;8.33;;;24.00;38.50;;;;;;10431629;28;20557;-72
2022/07/21 06:11:17;;;;;;;9.83;8.93;;;24.10;38.70;;;;;;10427303;28;20221;-72
2022/07/21 06:16:20;;;;;;;9.53;8.73;;;24.10;40.10;;;;;;10419970;28;20615;-72
2022/07/21 06:21:24;;;;;;;9.37;8.67;;;24.20;38.80;;;;;;10418854;28;20240;-73
2022/07/21 06:26:28;;;;;;;9.70;9.00;;;24.30;38.70;;;;;;10425039;28;20233;-73
2022/07/21 06:31:32;;;;;;;8.30;7.70;;;24.30;40.30;;;;;;10424410;28;20240;-72
2022/07/21 06:36:35;;;;;;;9.57;8.80;;;24.40;38.80;;;;;;10426071;28;20241;-73
2022/07/21 06:41:40;;;;;;;10.17;9.27;;;24.40;39.20;;;;;;10421368;28;20243;-73
2022/07/21 06:46:44;;;;;;;9.67;8.87;;;24.40;40.40;;;;;;10413142;28;20315;-73
2022/07/21 06:51:48;;;;;;;9.93;9.17;;;24.40;39.60;;;;;;10423016;28;20235;-73
2022/07/21 06:56:53;;;;;;;10.07;9.27;;;24.50;39.30;;;;;;10426039;28;20704;-73
2022/07/21 07:01:57;;;;;;;10.03;9.13;;;24.50;40.50;;;;;;10416928;28;20225;-73
2022/07/21 07:07:01;;;;;;;9.60;8.70;;;24.50;40.00;;;;;;10419923;28;20236;-73
2022/07/21 07:12:08;;;;;;;9.57;8.77;;;24.60;40.00;;;;;;10417487;28;20235;-72
2022/07/21 07:17:31;;;;;;;9.17;8.47;;;24.70;40.60;;;;;;10427967;28;20622;-72
2022/07/21 07:22:35;;;;;;;9.57;8.80;;;24.80;39.50;;;;;;10419729;28;20232;-72
2022/07/21 07:27:39;;;;;;;8.67;7.97;;;24.90;39.60;;;;;;10430583;28;20264;-72
2022/07/21 07:32:42;;;;;;;9.37;8.57;;;24.80;40.50;;;;;;10428571;28;20228;-73
2022/07/21 07:37:47;;;;;;;8.30;7.70;;;24.80;39.80;;;;;;10430321;28;20229;-73
2022/07/21 07:42:51;;;;;;;9.57;8.73;;;24.90;39.70;;;;;;10444767;28;20613;-73
2022/07/21 07:47:55;;;;;;;9.60;8.80;;;24.90;40.80;;;;;;10436741;28;20246;-73
2022/07/21 07:52:58;;;;;;;9.60;8.80;;;24.90;40.10;;;;;;10436495;28;20701;-73
2022/07/21 07:58:03;;;;;;;9.20;8.50;;;24.90;39.30;;;;;;10431979;28;20229;-73
2022/07/21 08:03:07;;;;;;;9.00;8.30;;;24.90;40.00;;;;;;10440522;28;20253;-73
2022/07/21 08:08:10;;;;;;;9.53;8.73;;;24.90;39.90;;;;;;10428225;28;20235;-72
2022/07/21 08:13:16;;;;;;;9.53;8.73;;;24.90;39.80;;;;;;10439398;28;20568;-72
2022/07/21 08:18:19;;;;;;;11.10;10.00;;;25.00;40.90;;;;;;10439450;28;20229;-72
2022/07/21 08:23:23;;;;;;;10.87;9.97;;;25.00;39.70;;;;;;10435861;28;20233;-71
2022/07/21 08:28:27;;;;;;;10.40;9.60;;;25.10;39.70;;;;;;10432688;28;20239;-72
2022/07/21 08:33:30;;;;;;;11.33;10.33;;;25.00;40.00;;;;;;10435410;28;20587;-72
2022/07/21 08:38:34;;;;;;;10.77;9.97;;;25.00;39.30;;;;;;10431601;28;20226;-72
2022/07/21 08:43:38;;;;;;;10.90;10.00;;;25.00;39.70;;;;;;10424958;28;20712;-72
2022/07/21 08:48:43;;;;;;;11.53;10.63;;;25.00;40.20;;;;;;10446327;28;20774;-72
2022/07/21 08:53:46;;;;;;;12.13;11.07;;;24.90;39.50;;;;;;10432591;28;20237;-71
2022/07/21 08:58:51;;;;;;;11.80;10.80;;;24.90;39.70;;;;;;10433291;28;20614;-72
2022/07/21 09:03:55;;;;;;;12.33;11.33;;;24.80;40.70;;;;;;10438081;28;20233;-73
2022/07/21 09:08:58;;;;;;;11.67;10.73;;;24.80;40.10;;;;;;10430472;28;20232;-73
2022/07/21 09:14:09;;;;;;;11.50;10.50;;;24.80;40.60;;;;;;10431265;28;20239;-72
2022/07/21 09:19:19;;;;;;;10.93;9.87;;;24.90;40.80;;;;;;10432923;28;20235;-72
2022/07/21 09:24:26;;;;;;;12.10;11.00;;;24.90;40.80;;;;;;10438438;28;20323;-73
2022/07/21 09:29:40;;;;;;;12.20;11.30;;;25.00;40.60;;;;;;10423708;28;20237;-72
2022/07/21 09:34:43;;;;;;;12.30;11.27;;;25.10;40.60;;;;;;10431119;28;20225;-72
2022/07/21 09:39:49;;;;;;;11.93;10.93;;;25.10;39.40;;;;;;10435282;28;20222;-73
2022/07/21 09:44:55;;;;;;;11.73;10.63;;;25.00;39.80;;;;;;10432345;28;20231;-72
2022/07/21 09:49:59;;;;;;;11.47;10.57;;;25.00;40.20;;;;;;10433755;28;20224;-71
2022/07/21 09:55:23;;;;;;;12.37;11.27;;;25.00;40.10;;;;;;10432585;28;21198;-73
2022/07/21 10:00:27;;;;;;;13.03;11.93;;;25.00;39.70;;;;;;10427576;28;20225;-72
2022/07/21 10:05:31;;;;;;;13.23;12.13;;;25.10;40.40;;;;;;10427572;28;20225;-72
2022/07/21 10:10:35;;;;;;;13.83;12.57;;;25.00;39.70;;;;;;10420708;28;20242;-73
2022/07/21 10:16:01;;;;;;;12.43;11.30;;;25.00;39.80;;;;;;10418852;28;20232;-73
2022/07/21 10:21:11;;;;;;;12.13;11.20;;;25.10;40.30;;;;;;10430410;28;20709;-72
2022/07/21 10:26:15;;;;;;;12.03;11.13;;;25.10;41.00;;;;;;10432210;28;20528;-72
2022/07/21 10:31:22;;;;;;;11.97;11.07;;;25.10;39.80;;;;;;10427781;28;20248;-72
2022/07/21 10:36:42;;;;;;;11.77;10.87;;;25.10;40.90;;;;;;10420705;28;20237;-72
2022/07/21 10:41:48;;;;;;;11.33;10.43;;;25.10;40.50;;;;;;10430205;28;20232;-73
2022/07/21 10:47:03;;;;;;;11.87;10.93;;;25.10;40.10;;;;;;10439541;28;20239;-73
2022/07/21 10:52:06;;;;;;;12.10;11.10;;;25.20;40.90;;;;;;10422177;28;20287;-73
2022/07/21 10:57:30;;;;;;;11.43;10.27;;;25.20;39.70;;;;;;10426360;28;20232;-73
2022/07/21 11:02:36;;;;;;;11.63;10.63;;;25.20;41.10;;;;;;10416693;28;20228;-73
2022/07/21 11:08:11;;;;;;;12.37;11.27;;;25.20;40.40;;;;;;10428059;28;20229;-73
2022/07/21 11:13:15;;;;;;;10.67;9.80;;;25.20;40.20;;;;;;10421121;28;20225;-74
2022/07/21 11:18:21;;;;;;;11.87;10.97;;;25.30;39.90;;;;;;10423001;28;20228;-75
2022/07/21 11:23:36;;;;;;;11.83;10.93;;;25.40;40.90;;;;;;10420523;28;20237;-75
2022/07/21 11:28:40;;;;;;;12.67;11.77;;;25.40;40.70;;;;;;10419574;28;20903;-74
2022/07/21 11:33:46;;;;;;;13.07;12.00;;;25.60;39.70;;;;;;10423342;28;20324;-74
2022/07/21 11:39:05;;;;;;;11.73;10.70;;;25.60;40.00;;;;;;10423516;28;20233;-73
2022/07/21 11:44:10;;;;;;;11.67;10.50;;;25.60;40.10;;;;;;10428734;28;20232;-74
2022/07/21 11:49:14;;;;;;;11.93;11.03;;;25.70;39.90;;;;;;10428303;28;20233;-74
2022/07/21 11:54:28;;;;;;;12.67;11.50;;;25.80;39.50;;;;;;10417118;28;20854;-74
2022/07/21 11:59:32;;;;;;;12.67;11.67;;;25.90;39.40;;;;;;10418388;28;20240;-75
2022/07/21 12:04:44;;;;;;;14.97;13.77;;;26.00;39.50;;;;;;10416538;28;20713;-76
2022/07/21 12:09:51;;;;;;;12.90;11.90;;;26.10;40.00;;;;;;10423815;28;20344;-76
2022/07/21 12:14:55;;;;;;;13.10;12.00;;;26.10;39.60;;;;;;10438785;28;20596;-75
2022/07/21 12:20:08;;;;;;;12.83;11.73;;;26.20;39.40;;;;;;10426849;28;20226;-75
2022/07/21 12:25:12;;;;;;;13.17;12.07;;;26.30;39.50;;;;;;10428816;28;20230;-75
2022/07/21 12:30:32;;;;;;;12.17;11.20;;;26.40;38.90;;;;;;10431004;28;20631;-76
2022/07/21 12:35:38;;;;;;;11.73;10.90;;;26.40;38.90;;;;;;10402869;28;20306;-76
2022/07/21 12:40:44;;;;;;;12.13;11.17;;;26.50;38.90;;;;;;10413576;28;20228;-75
2022/07/21 12:46:12;;;;;;;12.40;11.20;;;26.60;38.90;;;;;;10425167;28;20232;-76
2022/07/21 12:51:23;;;;;;;11.10;10.20;;;26.70;38.40;;;;;;10411082;28;20226;-74
2022/07/21 12:56:29;;;;;;;11.97;11.03;;;26.80;38.30;;;;;;10410160;28;20229;-75
2022/07/21 13:01:33;;;;;;;13.17;12.07;;;26.90;38.30;;;;;;10412840;28;20237;-76
2022/07/21 13:06:38;;;;;;;12.50;11.37;;;27.00;37.90;;;;;;10408133;28;20241;-76
2022/07/21 13:11:41;;;;;;;11.20;10.30;;;27.10;37.80;;;;;;10416227;28;20689;-74
2022/07/21 13:16:45;;;;;;;11.80;10.63;;;27.20;37.70;;;;;;10406945;28;20969;-74
2022/07/21 13:21:50;;;;;;;12.70;11.60;;;27.30;37.70;;;;;;10405406;28;20275;-73
2022/07/21 13:26:53;;;;;;;11.67;10.77;;;27.30;36.80;;;;;;10404107;28;20252;-73
2022/07/21 13:31:56;;;;;;;11.00;10.13;;;27.40;37.20;;;;;;10414707;28;20229;-73
2022/07/21 13:37:01;;;;;;;11.23;10.23;;;27.50;37.10;;;;;;10412178;28;20233;-74
2022/07/21 13:42:19;;;;;;;11.37;10.50;;;27.60;37.20;;;;;;10417646;28;20226;-74
2022/07/21 13:47:42;;;;;;;10.23;9.50;;;27.80;36.80;;;;;;10412835;28;20753;-74
2022/07/21 13:52:46;;;;;;;11.33;10.47;;;28.00;36.60;;;;;;10417394;28;20229;-73
2022/07/21 13:57:50;;;;;;;9.80;8.90;;;28.10;35.90;;;;;;10413555;28;20244;-73
2022/07/21 14:02:54;;;;;;;11.10;10.07;;;28.20;35.70;;;;;;10416753;28;20225;-72
2022/07/21 14:07:58;;;;;;;10.73;9.83;;;28.20;35.80;;;;;;10411600;28;20226;-72
2022/07/21 14:13:01;;;;;;;10.97;10.00;;;28.30;35.10;;;;;;10421756;28;20441;-73
2022/07/21 14:18:05;;;;;;;10.17;9.37;;;28.40;35.20;;;;;;10418446;28;20311;-73
2022/07/21 14:23:09;;;;;;;9.70;9.00;;;28.40;35.30;;;;;;10425954;28;20232;-73
2022/07/21 14:28:12;;;;;;;10.00;9.20;;;28.50;34.90;;;;;;10413799;28;20324;-73
2022/07/21 14:33:16;;;;;;;10.37;9.57;;;28.50;34.60;;;;;;10414260;28;20232;-72
2022/07/21 14:38:21;;;;;;;10.77;9.77;;;28.50;34.30;;;;;;10416202;28;20225;-72
2022/07/21 14:43:24;;;;;;;10.37;9.57;;;28.50;33.90;;;;;;10416588;28;20605;-72
2022/07/21 14:48:27;;;;;;;11.13;10.33;;;28.50;34.40;;;;;;10419828;28;20232;-71
2022/07/21 14:53:32;;;;;;;11.03;10.13;;;28.60;34.90;;;;;;10421034;28;20949;-71
2022/07/21 14:58:35;;;;;;;11.17;10.37;;;28.60;34.30;;;;;;10417798;28;20225;-72
2022/07/21 15:03:38;;;;;;;10.47;9.67;;;28.60;34.40;;;;;;10421697;28;20240;-72
2022/07/21 15:08:43;;;;;;;10.40;9.50;;;28.60;34.50;;;;;;10422806;28;21017;-73
2022/07/21 15:13:47;;;;;;;10.53;9.73;;;28.70;33.90;;;;;;10421559;28;20237;-72
2022/07/21 15:18:50;;;;;;;10.00;9.30;;;28.70;34.40;;;;;;10416370;28;20311;-72
2022/07/21 15:23:54;;;;;;;9.50;8.80;;;28.90;33.80;;;;;;10422298;28;20237;-73
2022/07/21 15:28:59;;;;;;;8.90;8.30;;;29.00;33.50;;;;;;10425593;28;20225;-72
2022/07/21 15:34:03;;;;;;;9.43;8.53;;;29.00;33.20;;;;;;10414288;28;20233;-72
2022/07/21 15:39:07;;;;;;;9.20;8.40;;;29.00;32.80;;;;;;10413015;28;20239;-72
2022/07/21 15:44:11;;;;;;;9.60;8.80;;;28.90;33.00;;;;;;10415811;28;20230;-72
2022/07/21 15:49:16;;;;;;;10.10;9.20;;;28.90;33.10;;;;;;10416362;28;20252;-72
2022/07/21 15:54:21;;;;;;;10.40;9.50;;;28.90;32.60;;;;;;10420998;28;20282;-72
2022/07/21 15:59:45;;;;;;;10.03;9.23;;;28.90;32.20;;;;;;10428149;28;20233;-72
2022/07/21 16:04:48;;;;;;;9.87;8.97;;;28.70;32.50;;;;;;10414694;28;20232;-72
2022/07/21 16:09:52;;;;;;;9.97;9.27;;;28.70;32.90;;;;;;10426512;28;20320;-72
2022/07/21 16:14:56;;;;;;;9.47;8.77;;;28.70;32.50;;;;;;10420307;28;20244;-72
2022/07/21 16:19:59;;;;;;;10.10;9.10;;;28.80;32.60;;;;;;10422184;28;20225;-72
2022/07/21 16:25:05;;;;;;;8.57;7.97;;;28.80;32.50;;;;;;10428894;28;20243;-72
2022/07/21 16:30:09;;;;;;;9.30;8.67;;;28.80;32.40;;;;;;10421745;28;20229;-72
2022/07/21 16:35:15;;;;;;;9.13;8.43;;;28.90;32.30;;;;;;10428936;28;20224;-72
2022/07/21 16:40:21;;;;;;;9.40;8.70;;;28.90;32.20;;;;;;10416502;28;21207;-75
2022/07/21 16:45:25;;;;;;;8.93;8.23;;;28.90;31.70;;;;;;10409104;28;20771;-75
2022/07/21 16:50:28;;;;;;;9.30;8.60;;;28.80;31.90;;;;;;10408505;28;20716;-76
2022/07/21 16:55:33;;;;;;;8.63;8.00;;;28.80;31.70;;;;;;10411558;28;20229;-76
2022/07/21 17:00:36;;;;;;;9.20;8.50;;;28.80;31.60;;;;;;10409392;28;20230;-75
2022/07/21 17:05:39;;;;;;;9.37;8.67;;;28.80;31.80;;;;;;10404959;28;20237;-75
2022/07/21 17:10:43;;;;;;;9.13;8.40;;;28.80;31.80;;;;;;10408946;28;20233;-75
2022/07/21 17:15:47;;;;;;;9.87;9.10;;;28.80;31.50;;;;;;10417748;28;20229;-76
2022/07/21 17:20:50;;;;;;;9.13;8.43;;;28.70;31.70;;;;;;10418531;28;20235;-75
2022/07/21 17:25:55;;;;;;;9.93;9.17;;;28.70;31.90;;;;;;10420199;28;20236;-76
2022/07/21 17:30:58;;;;;;;9.43;8.73;;;28.70;31.40;;;;;;10419971;28;20295;-75
2022/07/21 17:36:02;;;;;;;9.10;8.40;;;28.70;31.50;;;;;;10422223;28;20229;-76
2022/07/21 17:41:11;;;;;;;9.40;8.60;;;28.70;31.50;;;;;;10418621;28;20279;-75
2022/07/21 17:46:14;;;;;;;9.10;8.30;;;28.70;31.30;;;;;;10419368;28;20802;-75
2022/07/21 17:51:18;;;;;;;8.53;7.93;;;28.70;31.60;;;;;;10406132;28;20217;-75
2022/07/21 17:56:23;;;;;;;9.27;8.57;;;28.70;31.60;;;;;;10408414;28;20239;-76
2022/07/21 18:01:26;;;;;;;9.40;8.60;;;28.60;31.50;;;;;;10417503;28;20225;-75
2022/07/21 18:06:29;;;;;;;9.20;8.40;;;28.60;31.70;;;;;;10418625;28;20232;-75
2022/07/21 18:11:34;;;;;;;8.73;7.93;;;28.60;31.70;;;;;;10424504;28;20225;-75
2022/07/21 18:16:37;;;;;;;9.03;8.40;;;28.60;31.90;;;;;;10418451;28;20241;-76
2022/07/21 18:21:41;;;;;;;9.10;8.40;;;28.50;31.70;;;;;;10416978;28;20225;-76
2022/07/21 18:26:45;;;;;;;9.87;9.07;;;28.40;31.70;;;;;;10418848;28;20237;-76
2022/07/21 18:31:48;;;;;;;9.53;8.83;;;28.40;31.90;;;;;;10425371;28;20233;-75
2022/07/21 18:36:52;;;;;;;8.97;8.20;;;28.30;32.00;;;;;;10403628;28;20243;-72
2022/07/21 18:41:56;;;;;;;8.67;8.07;;;28.20;32.00;;;;;;10405317;28;20239;-73
2022/07/21 18:47:00;;;;;;;9.30;8.60;;;28.20;32.20;;;;;;10401261;28;20605;-75
2022/07/21 18:52:03;;;;;;;9.37;8.57;;;28.10;32.10;;;;;;10403595;28;20217;-77
2022/07/21 18:57:08;;;;;;;10.03;9.13;;;28.00;32.10;;;;;;10397085;28;20240;-77
2022/07/21 19:02:11;;;;;;;8.87;8.17;;;27.90;32.30;;;;;;10396248;28;20228;-73
2022/07/21 19:07:14;;;;;;;10.17;9.30;;;27.90;32.40;;;;;;10388388;28;20258;-71
2022/07/21 19:12:39;;;;;;;9.63;8.83;;;27.90;32.50;;;;;;10391011;28;20556;-71
2022/07/21 19:17:43;;;;;;;9.03;8.33;;;27.90;32.70;;;;;;10393024;28;20235;-73
2022/07/21 19:22:48;;;;;;;10.30;9.50;;;27.90;32.70;;;;;;10407528;28;21033;-73
2022/07/21 19:28:00;;;;;;;9.60;8.80;;;27.90;32.70;;;;;;10415640;28;20232;-73
2022/07/21 19:33:04;;;;;;;9.73;8.93;;;27.80;32.80;;;;;;10406068;28;20225;-73
2022/07/21 19:38:08;;;;;;;9.77;8.97;;;27.70;32.70;;;;;;10410941;28;20233;-73
2022/07/21 19:43:12;;;;;;;9.77;8.97;;;27.60;32.80;;;;;;10402196;28;20255;-73
2022/07/21 19:48:15;;;;;;;9.33;8.53;;;27.50;32.90;;;;;;10395887;28;20237;-73
2022/07/21 19:53:21;;;;;;;9.57;8.77;;;27.40;33.00;;;;;;10399122;28;20256;-73
2022/07/21 19:58:25;;;;;;;9.90;8.93;;;27.40;33.30;;;;;;10402405;28;20233;-73
2022/07/21 20:03:29;;;;;;;9.43;8.60;;;27.40;33.50;;;;;;10398507;28;20221;-73
2022/07/21 20:08:32;;;;;;;7.87;7.27;;;27.30;33.10;;;;;;10411826;28;20244;-73
2022/07/21 20:13:37;;;;;;;9.10;8.40;;;27.20;33.20;;;;;;10406990;28;20221;-74
2022/07/21 20:18:40;;;;;;;9.17;8.47;;;27.20;33.70;;;;;;10405201;28;20633;-73
2022/07/21 20:23:43;;;;;;;11.47;8.60;;;27.10;33.60;;;;;;10408737;28;20253;-73
2022/07/21 20:28:48;;;;;;;8.93;8.33;;;27.10;33.70;;;;;;10411895;28;20231;-73
2022/07/21 20:33:51;;;;;;;9.73;8.93;;;27.00;33.80;;;;;;10411302;28;20252;-73
2022/07/21 20:38:55;;;;;;;9.93;9.13;;;26.90;33.90;;;;;;10415533;28;20226;-73
2022/07/21 20:44:00;;;;;;;9.10;8.50;;;26.90;34.00;;;;;;10417585;28;20364;-74
2022/07/21 20:49:03;;;;;;;9.00;8.30;;;26.90;34.10;;;;;;10415770;28;20225;-73
2022/07/21 20:54:06;;;;;;;9.37;8.57;;;26.80;33.80;;;;;;10420240;28;20229;-73
2022/07/21 20:59:11;;;;;;;9.17;8.47;;;26.80;33.90;;;;;;10415258;28;20229;-73
2022/07/21 21:04:14;;;;;;;9.40;8.60;;;26.80;34.40;;;;;;10414806;28;20238;-73
2022/07/21 21:09:18;;;;;;;9.20;8.50;;;26.70;34.10;;;;;;10415672;28;20237;-73
2022/07/21 21:14:23;;;;;;;9.97;9.00;;;26.70;34.20;;;;;;10411357;28;20237;-73
2022/07/21 21:19:26;;;;;;;9.90;9.10;;;26.70;34.40;;;;;;10417095;28;20602;-73
2022/07/21 21:24:29;;;;;;;9.33;8.63;;;26.60;34.10;;;;;;10413578;28;20233;-73
2022/07/21 21:29:34;;;;;;;10.73;9.93;;;26.50;34.20;;;;;;10414047;28;20228;-73
2022/07/21 21:34:37;;;;;;;9.27;8.43;;;26.50;34.50;;;;;;10415845;28;20635;-73
2022/07/21 21:39:40;;;;;;;9.20;8.50;;;26.40;34.10;;;;;;10411239;28;20740;-73
2022/07/21 21:44:47;;;;;;;9.53;8.83;;;26.30;34.40;;;;;;10412074;28;20263;-72
2022/07/21 21:49:50;;;;;;;11.43;10.53;;;26.20;34.70;;;;;;10414233;28;20228;-72
2022/07/21 21:54:53;;;;;;;9.47;8.77;;;26.10;34.50;;;;;;10409627;28;20599;-72
2022/07/21 21:59:58;;;;;;;10.73;9.83;;;26.00;34.50;;;;;;10412926;28;20229;-73
2022/07/21 22:05:01;;;;;;;9.80;9.00;;;25.90;35.00;;;;;;10416607;28;20236;-72
2022/07/21 22:10:05;;;;;;;10.60;9.73;;;25.90;34.80;;;;;;10412800;28;20222;-72
2022/07/21 22:15:11;;;;;;;10.00;9.20;;;25.80;35.00;;;;;;10408653;28;20218;-73
2022/07/21 22:20:14;;;;;;;10.23;9.43;;;25.70;35.30;;;;;;10409398;28;20226;-73
2022/07/21 22:25:18;;;;;;;9.93;9.13;;;25.70;35.10;;;;;;10408349;28;20248;-72
2022/07/21 22:30:22;;;;;;;11.10;10.20;;;25.60;35.20;;;;;;10406237;28;20236;-73
2022/07/21 22:35:25;;;;;;;11.37;10.50;;;25.50;35.80;;;;;;10417430;28;20236;-72
2022/07/21 22:40:29;;;;;;;10.83;9.93;;;25.50;36.30;;;;;;10410389;28;20236;-72
2022/07/21 22:45:36;;;;;;;9.97;9.17;;;25.40;35.70;;;;;;10409592;28;20228;-73
2022/07/21 22:50:40;;;;;;;12.40;11.40;;;25.40;36.00;;;;;;10405804;28;20740;-73
2022/07/21 22:55:43;;;;;;;11.37;10.57;;;25.30;35.90;;;;;;10405656;28;20221;-73
2022/07/21 23:00:47;;;;;;;11.73;10.83;;;25.20;36.00;;;;;;10409329;28;20697;-73
2022/07/21 23:05:51;;;;;;;11.63;10.70;;;25.00;36.30;;;;;;10403683;28;20233;-73
2022/07/21 23:10:54;;;;;;;11.00;10.10;;;24.90;36.30;;;;;;10407900;28;20225;-73
2022/07/21 23:15:59;;;;;;;10.20;9.40;;;24.80;36.50;;;;;;10405006;28;20241;-73
2022/07/21 23:21:02;;;;;;;11.00;10.20;;;24.70;36.90;;;;;;10408080;28;20592;-73
2022/07/21 23:26:05;;;;;;;11.70;10.80;;;24.70;36.70;;;;;;10406836;28;20932;-73
2022/07/21 23:31:10;;;;;;;11.60;10.37;;;24.70;36.90;;;;;;10410739;28;20225;-72
2022/07/21 23:36:13;;;;;;;10.53;9.73;;;24.60;37.40;;;;;;10408888;28;20220;-72
2022/07/21 23:41:17;;;;;;;10.73;9.83;;;24.50;36.90;;;;;;10409211;28;20217;-73
2022/07/21 23:46:22;;;;;;;10.50;9.60;;;24.40;37.30;;;;;;10409732;28;20759;-73
2022/07/21 23:51:25;;;;;;;11.50;10.50;;;24.30;37.90;;;;;;10407266;28;20307;-73
2022/07/21 23:56:28;;;;;;;11.60;10.70;;;24.30;37.60;;;;;;10406269;28;20700;-72
